新千歳空港の過去48時間の天気

新千歳空港 (Sapporo/New Chitose)

現在時刻: 1/23 13:18 JST (1/23 04:18 UTC) 以下の時間は現地時間です。

過去48時間のMETAR気象情報
時間 風向 風速(m/s) 視程 気温(℃) 湿度(%) 気圧(hPa) 天気現象
23 13:00 南南東 5 10km以上 1 55 994
23 12:30 南南東 4 10km以上 1 51 995
23 12:00 南南東 6 10km以上 0 55 995
23 11:30 南南東 6 10km以上 -1 55 997
23 11:00 南南東 4 10km以上 -1 50 998
23 10:30 南東 3 10km以上 -2 54 1000
23 10:00 南南東 4 10km以上 -3 59 1000
23 09:30 南東 3 10km以上 -3 59 1001
23 09:00 南南東 3 10km以上 -4 58 1002
23 08:30 5 10km以上 -5 63 1002
23 08:00 5 10km以上 -8 79 1003
23 07:30 2 10km以上 -9 85 1003
23 07:00 1 10km以上 -9 85 1004
23 06:30 北北東 1 10km以上 -9 79 1005
23 06:00 1 10km以上 -9 79 1005
23 05:30 北北西 2 10km以上 -9 79 1006
23 05:00 2 10km以上 -8 73 1007
23 04:30 2 10km以上 -8 73 1008
23 04:00 2 10km以上 -8 73 1008
23 03:30 3 10km以上 -8 79 1009
23 03:00 東南東 3 10km以上 -8 79 1010
23 02:30 北北西 3 10km以上 -8 73 1011
23 02:00 3 10km以上 -9 79 1011
23 01:30 3 10km以上 -8 79 1012
23 01:00 3 10km以上 -8 79 1013
23 00:30 3 10km以上 -8 79 1013
23 00:00 北北西 3 10km以上 -7 68 1014
22 23:30 北北西 3 10km以上 -8 73 1015
22 23:00 2 10km以上 -8 79 1015
22 22:30 北北西 3 10km以上 -7 73 1016
22 22:00 北西 2 10km以上 -8 73 1017
22 21:30 北西 2 10km以上 -8 67 1017
22 21:00 北西 1 10km以上 -9 79 1017
22 20:30 北北東 2 10km以上 -9 73 1018
22 20:00 静穏 0 10km以上 -9 73 1018
22 19:30 南東 1 10km以上 -9 79 1019
22 19:00 東南東 1 10km以上 -9 73 1019
22 18:30 不定 1 10km以上 -9 67 1018
22 18:00 北北西 1 10km以上 -8 67 1018
22 17:30 静穏 0 10km以上 -7 62 1018
22 17:00 1 10km以上 -8 67 1018
22 16:30 不定 1 10km以上 -6 53 1018
22 16:00 南東 1 10km以上 -5 53 1018
22 15:30 不定 1 10km以上 -5 53 1019
22 15:00 南南東 2 10km以上 -5 58 1019
22 14:30 3 10km以上 -4 50 1019
22 14:00 南西 3 10km以上 -4 46 1019
22 13:30 南南西 3 10km以上 -4 46 1019
22 13:00 南南西 2 10km以上 -4 46 1019
22 12:30 南南西 3 10km以上 -4 42 1019
22 12:00 西南西 3 10km以上 -4 42 1020
22 11:30 南西 4 10km以上 -4 46 1020
22 11:00 3 10km以上 -5 49 1020 弱いしゅう雪
22 10:30 南南西 4 10km以上 -5 49 1021
22 10:00 南西 3 10km以上 -6 53 1020
22 09:30 南南西 3 10km以上 -6 53 1020
22 09:00 南南西 3 10km以上 -6 49 1021
22 08:30 南南西 4 10km以上 -7 53 1021
22 08:00 南南西 2 10km以上 -8 53 1021
22 07:30 南西 2 10km以上 -9 57 1020
22 07:00 3 10km以上 -9 57 1020
22 06:30 4 10km以上 -10 62 1020
22 06:00 3 10km以上 -10 62 1020
22 05:30 2 10km以上 -9 67 1020 弱いしゅう雪
22 05:00 南西 2 10km以上 -9 62 1019 弱いしゅう雪
22 04:30 南南西 4 10km以上 -10 67 1019
22 04:00 南南西 5 10km以上 -9 62 1019
22 03:30 南南西 4 10km以上 -10 67 1019
22 03:00 南南西 4 10km以上 -10 67 1019 弱いしゅう雪
22 02:30 南南西 3 10km以上 -11 79 1019 弱いしゅう雪
22 02:00 南南西 3 10km以上 -11 72 1019 弱いしゅう雪
22 01:30 南南西 4 10km以上 -10 67 1019
22 01:00 南南西 2 10km以上 -10 67 1018
22 00:30 南南西 2 10km以上 -10 67 1018
22 00:00 南南西 3 10km以上 -10 67 1019 弱いしゅう雪
21 23:30 南南西 5 10km以上 -10 73 1018 弱いしゅう雪
21 23:00 南西 5 10km以上 -11 72 1018 弱いしゅう雪
21 22:30 南南西 3 10km以上 -12 78 1018
21 22:00 南南西 3 10km以上 -12 78 1017
21 21:30 南南西 3 10km以上 -11 79 1017
21 21:00 南南西 3 10km以上 -12 78 1017
21 20:30 不定 1 10km以上 -11 72 1017
21 20:00 3 10km以上 -10 62 1017
21 19:30 西北西 4 10km以上 -10 62 1017 弱いしゅう雪
21 19:00 西北西 6 10km以上 -9 62 1016 弱いしゅう雪
21 18:30 北北西 6 10km以上 -8 62 1016 弱いしゅう雪
21 18:00 西北西 4 10km以上 -8 62 1015 弱いしゅう雪
21 17:30 北西 4 10km以上 -8 73 1015 弱いしゅう雪
21 17:00 北北西 6 4,900m -7 62 1014 弱いしゅう雪
21 16:30 西 5 10km以上 -7 49 1014 周辺でしゅう雨
21 16:00 西北西 5 10km以上 -6 41 1013 周辺でしゅう雨
21 15:30 西 6 10km以上 -6 45 1013
21 15:00 西 7 10km以上 -5 42 1012
21 14:30 北北西 4 10km以上 -4 63 1012
21 14:00 不定 2 10km以上 -4 58 1012
21 13:30 3 10km以上 -5 68 1011
RJCC 230400Z 16010KT 9999 FEW015 SCT060 BKN070 01/M07 Q0994 RMK 1ST015 3CU060 7AC070 A2935
RJCC 230330Z 15007KT 9999 FEW015 BKN070 01/M08 Q0995 RMK 1ST015 7AC070 A2938
RJCC 230300Z 16011KT 9999 FEW015 SCT060 BKN070 00/M08 Q0995 RMK 1ST015 3CU060 7AC070 A2940 P/FR
RJCC 230230Z 15011KT 9999 FEW015 BKN070 M01/M09 Q0997 RMK 1ST015 7AC070 A2944 P/FR
RJCC 230200Z 16008KT 9999 FEW015 BKN070 M01/M10 Q0998 RMK 1ST015 6AC070 A2949 P/FR
RJCC 230130Z 14006KT 9999 FEW015 BKN070 M02/M10 Q1000 RMK 1ST015 6AC070 A2953
RJCC 230100Z 16007KT 9999 FEW015 BKN070 M03/M10 Q1000 RMK 1ST015 7AC070 A2956
RJCC 230030Z 14005KT 9999 FEW015 BKN070 M03/M10 Q1001 RMK 1ST015 7AC070 A2958
RJCC 230000Z 15005KT 9999 FEW015 BKN070 M04/M11 Q1002 RMK 1ST015 7AC070 A2961
RJCC 222330Z 17009KT 9999 FEW015 BKN070 M05/M11 Q1002 RMK 1ST015 7AC070 A2961
RJCC 222300Z 18009KT 9999 FEW015 BKN070 M08/M11 Q1003 RMK 1ST015 7AC070 A2962
RJCC 222230Z 17004KT 9999 FEW015 BKN070 M09/M11 Q1003 RMK 1ST015 7AC070 A2964
RJCC 222200Z 10002KT 9999 FEW015 BKN070 M09/M11 Q1004 RMK 1ST015 7AC070 A2967
RJCC 222130Z 03002KT 9999 FEW020 BKN070 M09/M12 Q1005 RMK 1CU020 7AC070 A2969
RJCC 222100Z 36002KT 9999 FEW020 BKN070 M09/M12 Q1005 RMK 1CU020 7AC070 A2970
RJCC 222030Z 33003KT 9999 FEW020 SCT035 BKN070 M09/M12 Q1006 RMK 1CU020 3CU035 7AC070 A2972
RJCC 222000Z 01003KT 9999 FEW020 BKN030 M08/M12 Q1007 RMK 1CU020 7SC030 A2974
RJCC 221930Z 01004KT 340V050 9999 FEW020 BKN030 M08/M12 Q1008 RMK 1CU020 7SC030 A2977
RJCC 221900Z 01003KT 9999 FEW020 BKN030 M08/M12 Q1008 RMK 1CU020 7SC030 A2979
RJCC 221830Z 36005KT 9999 FEW015 BKN025 M08/M11 Q1009 RMK 1ST015 7SC025 A2982
RJCC 221800Z 11005KT 350V170 9999 FEW015 BKN025 M08/M11 Q1010 RMK 1ST015 7SC025 A2984
RJCC 221730Z 34006KT 9999 FEW020 BKN030 M08/M12 Q1011 RMK 1CU020 7SC030 A2985
RJCC 221700Z 36006KT 9999 FEW020 BKN030 M09/M12 Q1011 RMK 1CU020 7SC030 A2988
RJCC 221630Z 35006KT 9999 FEW020 BKN035 M08/M11 Q1012 RMK 1CU020 7SC035 A2990
RJCC 221600Z 35005KT 9999 FEW025 BKN035 M08/M11 Q1013 RMK 1CU025 7SC035 A2992
RJCC 221530Z 35006KT 9999 FEW030 BKN040 M08/M11 Q1013 RMK 1CU030 7SC040 A2993
RJCC 221500Z 34006KT 9999 FEW030 BKN040 M07/M12 Q1014 RMK 1CU030 7SC040 A2995
RJCC 221430Z 34006KT 9999 FEW030 BKN045 M08/M12 Q1015 RMK 1CU030 7SC045 A2998
RJCC 221400Z 35004KT 9999 FEW030 BKN045 M08/M11 Q1015 RMK 1CU030 7SC045 A3000
RJCC 221330Z 33005KT 9999 FEW030 BKN045 M07/M11 Q1016 RMK 1CU030 7SC045 A3001
RJCC 221300Z 32003KT 9999 FEW030 BKN045 M08/M12 Q1017 RMK 1CU030 7SC045 A3003
RJCC 221230Z 32004KT 9999 FEW030 BKN045 M08/M13 Q1017 RMK 1CU030 7SC045 A3004
RJCC 221200Z 32001KT 9999 FEW030 BKN050 BKN/// M09/M12 Q1017 RMK 1CU030 6SC050 A3006
RJCC 221130Z 02003KT 9999 FEW030 BKN060 BKN/// M09/M13 Q1018
RJCC 221100Z 00000KT 9999 FEW030 SCT070 BKN/// M09/M13 Q1018
RJCC 221030Z 13001KT 9999 FEW030 SCT070 BKN/// M09/M12 Q1019
RJCC 221000Z 11002KT 9999 FEW025 BKN/// M09/M13 Q1019
RJCC 220930Z VRB02KT 9999 FEW025 BKN/// M09/M14 Q1018
RJCC 220900Z 34002KT 9999 FEW030 SCT080 BKN/// M08/M13 Q1018
RJCC 220830Z 00000KT 9999 FEW030 BKN/// M07/M13 Q1018
RJCC 220800Z 08002KT 9999 FEW030 BKN/// M08/M13 Q1018 RMK 1CU030 A3008
RJCC 220730Z VRB01KT 9999 FEW030 BKN/// M06/M14 Q1018 RMK 1CU030 A3008
RJCC 220700Z 13002KT 9999 FEW030 SCT070 BKN/// M05/M13 Q1018
RJCC 220630Z VRB02KT 9999 FEW030 SCT060 BKN/// M05/M13 Q1019
RJCC 220600Z 15004KT 110V180 9999 FEW030 SCT060 BKN/// M05/M12 Q1019
RJCC 220530Z 18005KT 160V220 9999 FEW030 SCT040 BKN050 M04/M13 Q1019 RMK 1CU030 3CU040 7CU050 A3010
RJCC 220500Z 22005KT 190V260 9999 FEW030 SCT045 BKN080 M04/M14 Q1019 RMK 1CU030 3CU045 7AC080 A3010
RJCC 220430Z 21005KT 170V250 9999 FEW030 SCT045 BKN060 M04/M14 Q1019 RMK 1CU030 3CU045 7CU060 A3010
RJCC 220400Z 21004KT 170V250 9999 FEW030 SCT050 BKN060 M04/M14 Q1019 RMK 1CU030 4CU050 7CU060 A3010
RJCC 220330Z 20005KT 160V230 9999 FEW030 BKN050 M04/M15 Q1019 RMK 2CU030 6CU050 A3011
RJCC 220300Z 25006KT 200V270 9999 FEW025 SCT030 BKN050 M04/M15 Q1020 RMK 1CU025 3CU030 7CU050 A3012
RJCC 220230Z 23008KT 200V270 9999 FEW025 SCT030 BKN050 M04/M14 Q1020 RMK 1CU025 3CU030 7CU050 A3013
RJCC 220200Z 18006KT 9999 -SHSN FEW025 SCT040 BKN050 M05/M14 Q1020 RMK 1CU025 3CU040 6CU050 A3015
RJCC 220130Z 20008KT 9999 FEW025 SCT050 M05/M14 Q1021 RMK 1CU025 3CU050 A3015
RJCC 220100Z 22005KT 9999 FEW025 M06/M14 Q1020 RMK 1CU025 A3014
RJCC 220030Z 20005KT 9999 FEW020 M06/M14 Q1020 RMK 1CU020 A3014
RJCC 220000Z 20006KT 9999 FEW020 M06/M15 Q1021 RMK 1CU020 A3015
RJCC 212330Z 20007KT 9999 FEW020 M07/M15 Q1021 RMK 1CU020 A3016
RJCC 212300Z 21004KT 9999 FEW020 M08/M16 Q1021 RMK 1CU020 A3015
RJCC 212230Z 22004KT 9999 FEW020 M09/M16 Q1020 RMK 1CU020 A3014
RJCC 212200Z 19006KT 9999 FEW020 M09/M16 Q1020 RMK 1CU020 A3014
RJCC 212130Z 19007KT 9999 FEW020 M10/M16 Q1020 RMK 1CU020 A3013
RJCC 212100Z 17005KT 9999 FEW020 SCT050 M10/M16 Q1020 RMK 1CU020 4CU050 A3012
RJCC 212030Z 19004KT 9999 -SHSN FEW015 BKN040 M09/M14 Q1020 RMK 1ST015 5CU040 A3012
RJCC 212000Z 23003KT 9999 -SHSN FEW020 BKN040 M09/M15 Q1019 RMK 1CU020 5CU040 A3011
RJCC 211930Z 21008KT 9999 FEW020 SCT045 M10/M15 Q1019 RMK 1CU020 3CU045 A3011
RJCC 211900Z 21009KT 9999 FEW020 SCT045 M09/M15 Q1019 RMK 1CU020 3CU045 A3010
RJCC 211830Z 21007KT 9999 FEW020 SCT045 M10/M15 Q1019 RMK 1CU020 3CU045 A3010
RJCC 211800Z 21007KT 9999 -SHSN FEW020 SCT040 M10/M15 Q1019 RMK 1CU020 4CU040 A3010
RJCC 211730Z 21006KT 9999 -SHSN FEW020 SCT040 M11/M14 Q1019 RMK 1CU020 4CU040 A3010
RJCC 211700Z 20006KT 9999 -SHSN FEW020 SCT040 M11/M15 Q1019 RMK 1CU020 4CU040 A3010
RJCC 211630Z 21008KT 9999 FEW020 SCT040 M10/M15 Q1019 RMK 1CU020 3CU040 A3009
RJCC 211600Z 20004KT 9999 FEW020 SCT040 M10/M15 Q1018 RMK 1CU020 3CU040 A3009
RJCC 211530Z 21004KT 9999 FEW020 SCT040 M10/M15 Q1018 RMK 1CU020 4CU040 A3008
RJCC 211500Z 21006KT 9999 -SHSN FEW020 BKN050 M10/M15 Q1019 RMK 1CU020 6CU050 A3009
RJCC 211430Z 21009KT 9999 -SHSN FEW020 BKN050 M10/M14 Q1018 RMK 1CU020 5CU050 A3008
RJCC 211400Z 23010KT 9999 -SHSN FEW020 SCT040 M11/M15 Q1018 RMK 1CU020 3CU040 A3008
RJCC 211330Z 20006KT 9999 FEW020 M12/M15 Q1018 RMK 1CU020 A3006
RJCC 211300Z 20005KT 9999 FEW020 M12/M15 Q1017 RMK 1CU020 A3005
RJCC 211230Z 21006KT 9999 FEW020 M11/M14 Q1017 RMK 1CU020 A3005
RJCC 211200Z 20005KT 9999 FEW020 M12/M15 Q1017 RMK 1CU020 A3005
RJCC 211130Z VRB02KT 9999 FEW020 M11/M15 Q1017 RMK 1CU020 A3005
RJCC 211100Z VRB05KT 9999 FEW015 SCT060 M10/M16 Q1017 RMK 1ST015 3CU060 A3004
RJCC 211030Z 29008KT 260V320 9999 -SHSN FEW015 BKN060 M10/M16 Q1017 RMK 1ST015 6CU060 A3004
RJCC 211000Z 30011KT 250V320 9999 -SHSN FEW010 SCT020 BKN040 M09/M15 Q1016 RMK 1ST010 3CU020 7CU040 A3003
RJCC 210930Z 33011KT 9999 -SHSN FEW010 BKN035 M08/M14 Q1016 RMK 1ST010 6CU035 A3001
RJCC 210900Z 30008KT 9999 -SHSN FEW010 BKN020 M08/M14 Q1015 RMK 1ST010 5CU020 A3000
RJCC 210830Z 32008KT 9999 -SHSN FEW010 SCT020 M08/M12 Q1015 RMK 1ST010 4CU020 A2999
RJCC 210800Z 33012KT 4900 -SHSN FEW010 BKN035 M07/M13 Q1014 RMK 1ST010 6CU035 A2997 9999S
RJCC 210730Z 28009KT 9999 VCSH FEW020 BKN050 M07/M16 Q1014 RMK 1CU020 5CU050 A2995 SH W-NW
RJCC 210700Z 29010KT 9999 VCSH FEW020 SCT050 M06/M17 Q1013 RMK 1CU020 4CU050 A2994 SH NW
RJCC 210630Z 27012KT 9999 FEW020 SCT050 M06/M16 Q1013 RMK 1CU020 3CU050 A2993
RJCC 210600Z 27014KT 9999 FEW020 SCT050 M05/M16 Q1012 RMK 1CU020 3CU050 A2991
RJCC 210530Z 33007KT 280V350 9999 FEW020 SCT045 M04/M10 Q1012 RMK 1CU020 4CU045 A2990
RJCC 210500Z VRB04KT 9999 FEW020 SCT030 BKN045 M04/M11 Q1012 RMK 1CU020 3CU030 5CU045 A2989
RJCC 210430Z 36006KT 9999 FEW020 SCT050 M05/M10 Q1011 RMK 1CU020 4CU050 A2988